Ana Sayfa
METAR-TAF:

METAR-TAF

Havaalanları :

Brüksel Havalimanı

Brüksel, Belçika

Enlem: 50-54N, Boylam: 004-32E, yükseklik: 55 m

Güncel hava durumu gözlemi

Rapor saat 04:20 UTC de 36 dakika önce yapıldı.
Rüzgar doğudan 3 kt
Sıcaklık -1°C
Nem 93%
Basınç 1020 hPa
Görüş mesafesi 10 km veya daha fazla
1500 m altında bulut yok ve kümülonimbus yok

METAR: EBBR 130420Z 08003KT CAVOK M01/M02 Q1020 NOSIG

Saat: 05:56 (04:56 UTC)

Tahmin

Rapor saat 17:10 UTC de 11 saat ve 46 dakika önce yapıldı.
Ayın 12'si saat 18 UTC'den ayın 13'si saat 24 UTC'ye kadar geçerli Tahmin
Rüzgar doğudan 6 kt
Görüş mesafesi: 7000 m
800 ft yükseklikte az bulutlu
4000 ft yükseklikte parçalı bulutlu
Dönüşüyor
ayın 12'si saat 22 UTC'den ayın 12'si saat 24 UTC'ye kadar
Görüş mesafesi: 3000 m
Pus
Dönüşüyor
ayın 13'si saat 06 UTC'den ayın 13'si saat 08 UTC'ye kadar
Görüş mesafesi: 8000 m

TAF: EBBR 121710Z 1218/1324 08006KT 7000 FEW008 SCT040 BECMG 1222/1224 3000 BR BECMG 1306/1308 8000 NSW

4.000'den fazla havaalanı için hava durumu gözlemleri ve tahminleri (METAR ve TAF raporları).

Kullanılabilir istasyonlar harita üzerinde sarı ve kırmızı noktalarla gösterilir.

İstasyonun adını görmek için fareyi noktanın üzerinde gezdirin.

Sonrasında hava gözlem ve tahminlerini görmek için tıklayın.

Haritayı değiştirmek için: yaklaştırmak için siyah artı işaretli yeşil düğmeye ve uzaklaştırmak için de eksi işaretli düğmeye hızla tıklayın; bitişik haritalar için yeşil okları kullanın.


METAR-TAF: